sensor_id;sensor_type;location;lat;lon;timestamp;pressure;altitude;pressure_sealevel;temperature;humidity
35892;BME280;21993;42.672;23.296;2022-07-09T00:00:08;94625.25;;;20.39;78.74
35892;BME280;21993;42.672;23.296;2022-07-09T00:02:34;94625.44;;;20.38;79.60
35892;BME280;21993;42.672;23.296;2022-07-09T00:05:00;94635.09;;;20.39;78.67
35892;BME280;21993;42.672;23.296;2022-07-09T00:07:26;94634.69;;;20.35;79.57
35892;BME280;21993;42.672;23.296;2022-07-09T00:09:52;94631.94;;;20.22;79.94
35892;BME280;21993;42.672;23.296;2022-07-09T00:12:17;94639.25;;;20.13;80.04
35892;BME280;21993;42.672;23.296;2022-07-09T00:14:43;94632.66;;;20.09;79.68
35892;BME280;21993;42.672;23.296;2022-07-09T00:17:08;94639.41;;;20.05;80.31
35892;BME280;21993;42.672;23.296;2022-07-09T00:19:34;94638.41;;;20.06;80.18
35892;BME280;21993;42.672;23.296;2022-07-09T00:21:59;94634.09;;;20.05;79.71
35892;BME280;21993;42.672;23.296;2022-07-09T00:24:24;94632.03;;;20.07;79.93
35892;BME280;21993;42.672;23.296;2022-07-09T00:26:50;94634.28;;;20.04;79.65
35892;BME280;21993;42.672;23.296;2022-07-09T00:29:15;94621.31;;;19.94;79.17
35892;BME280;21993;42.672;23.296;2022-07-09T00:31:41;94622.66;;;19.83;79.20
35892;BME280;21993;42.672;23.296;2022-07-09T00:34:06;94619.69;;;19.93;78.53
35892;BME280;21993;42.672;23.296;2022-07-09T00:36:32;94614.66;;;19.83;79.81
35892;BME280;21993;42.672;23.296;2022-07-09T00:38:57;94620.00;;;19.83;79.71
35892;BME280;21993;42.672;23.296;2022-07-09T00:41:23;94620.44;;;19.87;78.74
35892;BME280;21993;42.672;23.296;2022-07-09T00:43:50;94624.16;;;19.92;79.31
35892;BME280;21993;42.672;23.296;2022-07-09T00:46:16;94614.28;;;19.86;78.67
35892;BME280;21993;42.672;23.296;2022-07-09T00:48:42;94619.69;;;19.93;78.19
35892;BME280;21993;42.672;23.296;2022-07-09T00:51:09;94619.22;;;19.89;78.14
35892;BME280;21993;42.672;23.296;2022-07-09T00:53:36;94612.66;;;19.85;78.43
35892;BME280;21993;42.672;23.296;2022-07-09T00:56:03;94611.03;;;19.91;77.71
35892;BME280;21993;42.672;23.296;2022-07-09T00:58:29;94607.50;;;19.84;78.33
35892;BME280;21993;42.672;23.296;2022-07-09T01:00:55;94598.09;;;19.88;78.46
35892;BME280;21993;42.672;23.296;2022-07-09T01:03:21;94606.25;;;19.80;79.08
35892;BME280;21993;42.672;23.296;2022-07-09T01:05:47;94598.66;;;19.77;78.42
35892;BME280;21993;42.672;23.296;2022-07-09T01:08:13;94601.75;;;19.80;78.47
35892;BME280;21993;42.672;23.296;2022-07-09T01:10:39;94594.56;;;19.81;78.49
35892;BME280;21993;42.672;23.296;2022-07-09T01:13:05;94596.84;;;19.84;78.22
35892;BME280;21993;42.672;23.296;2022-07-09T01:15:32;94602.16;;;19.77;78.23
35892;BME280;21993;42.672;23.296;2022-07-09T01:17:58;94600.88;;;19.73;78.56
35892;BME280;21993;42.672;23.296;2022-07-09T01:20:27;94596.75;;;19.71;78.98
35892;BME280;21993;42.672;23.296;2022-07-09T01:22:54;94587.34;;;19.75;78.69
35892;BME280;21993;42.672;23.296;2022-07-09T01:25:35;94592.50;;;19.76;78.91
35892;BME280;21993;42.672;23.296;2022-07-09T01:28:02;94591.44;;;19.71;78.94
35892;BME280;21993;42.672;23.296;2022-07-09T01:30:31;94590.41;;;19.72;78.38
35892;BME280;21993;42.672;23.296;2022-07-09T01:32:57;94588.16;;;19.68;78.36
35892;BME280;21993;42.672;23.296;2022-07-09T01:35:22;94582.22;;;19.73;78.75
35892;BME280;21993;42.672;23.296;2022-07-09T01:37:48;94580.16;;;19.68;78.93
35892;BME280;21993;42.672;23.296;2022-07-09T01:40:14;94584.47;;;19.70;79.03
35892;BME280;21993;42.672;23.296;2022-07-09T01:42:39;94589.34;;;19.66;79.44
35892;BME280;21993;42.672;23.296;2022-07-09T01:45:05;94590.38;;;19.65;79.40
35892;BME280;21993;42.672;23.296;2022-07-09T01:47:31;94575.81;;;19.61;78.69
35892;BME280;21993;42.672;23.296;2022-07-09T01:49:57;94580.16;;;19.68;78.53
35892;BME280;21993;42.672;23.296;2022-07-09T01:52:23;94579.34;;;19.68;78.79
35892;BME280;21993;42.672;23.296;2022-07-09T01:54:49;94579.75;;;19.72;77.92
35892;BME280;21993;42.672;23.296;2022-07-09T01:57:14;94578.31;;;19.69;78.55
35892;BME280;21993;42.672;23.296;2022-07-09T01:59:40;94589.34;;;19.66;78.33
35892;BME280;21993;42.672;23.296;2022-07-09T02:02:05;94575.59;;;19.62;79.20
35892;BME280;21993;42.672;23.296;2022-07-09T02:04:31;94576.03;;;19.66;78.50
35892;BME280;21993;42.672;23.296;2022-07-09T02:06:57;94581.34;;;19.66;78.14
35892;BME280;21993;42.672;23.296;2022-07-09T02:09:22;94586.66;;;19.59;79.03
35892;BME280;21993;42.672;23.296;2022-07-09T02:11:48;94584.00;;;19.66;79.20
35892;BME280;21993;42.672;23.296;2022-07-09T02:14:14;94594.66;;;19.59;78.87
35892;BME280;21993;42.672;23.296;2022-07-09T02:16:40;94586.81;;;19.58;78.38
35892;BME280;21993;42.672;23.296;2022-07-09T02:19:06;94591.50;;;19.56;78.26
35892;BME280;21993;42.672;23.296;2022-07-09T02:21:34;94587.84;;;19.57;78.64
35892;BME280;21993;42.672;23.296;2022-07-09T02:24:00;94582.00;;;19.68;77.65
35892;BME280;21993;42.672;23.296;2022-07-09T02:26:26;94592.22;;;19.64;78.38
35892;BME280;21993;42.672;23.296;2022-07-09T02:28:53;94593.66;;;19.67;77.86
35892;BME280;21993;42.672;23.296;2022-07-09T02:31:19;94600.00;;;19.66;78.18
35892;BME280;21993;42.672;23.296;2022-07-09T02:33:44;94596.91;;;19.62;78.26
35892;BME280;21993;42.672;23.296;2022-07-09T02:36:10;94597.72;;;19.63;77.65
35892;BME280;21993;42.672;23.296;2022-07-09T02:38:35;94600.78;;;19.60;77.77
35892;BME280;21993;42.672;23.296;2022-07-09T02:41:01;94603.63;;;19.58;76.92
35892;BME280;21993;42.672;23.296;2022-07-09T02:43:27;94605.31;;;19.59;77.87
35892;BME280;21993;42.672;23.296;2022-07-09T02:45:52;94597.72;;;19.63;77.78
35892;BME280;21993;42.672;23.296;2022-07-09T02:48:21;94601.63;;;19.60;77.15
35892;BME280;21993;42.672;23.296;2022-07-09T02:50:46;94599.97;;;19.59;77.38
35892;BME280;21993;42.672;23.296;2022-07-09T02:53:12;94603.63;;;19.58;78.15
35892;BME280;21993;42.672;23.296;2022-07-09T02:55:37;94605.66;;;19.56;78.41
35892;BME280;21993;42.672;23.296;2022-07-09T02:58:03;94609.31;;;19.55;78.62
35892;BME280;21993;42.672;23.296;2022-07-09T03:00:28;94602.91;;;19.50;78.62
35892;BME280;21993;42.672;23.296;2022-07-09T03:02:54;94615.25;;;19.51;77.07
35892;BME280;21993;42.672;23.296;2022-07-09T03:05:19;94616.31;;;19.56;77.06
35892;BME280;21993;42.672;23.296;2022-07-09T03:07:45;94614.84;;;19.54;77.94
35892;BME280;21993;42.672;23.296;2022-07-09T03:10:10;94620.16;;;19.54;77.21
35892;BME280;21993;42.672;23.296;2022-07-09T03:12:35;94623.22;;;19.51;77.66
35892;BME280;21993;42.672;23.296;2022-07-09T03:15:01;94615.25;;;19.51;77.00
35892;BME280;21993;42.672;23.296;2022-07-09T03:17:27;94619.81;;;19.57;77.21
35892;BME280;21993;42.672;23.296;2022-07-09T03:19:52;94613.19;;;19.53;77.20
35892;BME280;21993;42.672;23.296;2022-07-09T03:22:18;94612.38;;;19.52;78.27
35892;BME280;21993;42.672;23.296;2022-07-09T03:24:43;94609.50;;;19.54;76.71
35892;BME280;21993;42.672;23.296;2022-07-09T03:27:09;94611.97;;;19.55;76.87
35892;BME280;21993;42.672;23.296;2022-07-09T03:29:34;94609.91;;;19.51;78.25
35892;BME280;21993;42.672;23.296;2022-07-09T03:32:00;94606.84;;;19.54;78.65
35892;BME280;21993;42.672;23.296;2022-07-09T03:34:26;94602.16;;;19.56;78.56
35892;BME280;21993;42.672;23.296;2022-07-09T03:36:51;94619.16;;;19.55;76.89
35892;BME280;21993;42.672;23.296;2022-07-09T03:39:17;94609.66;;;19.46;78.28
35892;BME280;21993;42.672;23.296;2022-07-09T03:41:42;94615.03;;;19.52;78.38
35892;BME280;21993;42.672;23.296;2022-07-09T03:44:08;94608.88;;;19.52;78.14
35892;BME280;21993;42.672;23.296;2022-07-09T03:46:33;94604.59;;;19.51;78.34
35892;BME280;21993;42.672;23.296;2022-07-09T03:48:59;94608.63;;;19.47;78.12
35892;BME280;21993;42.672;23.296;2022-07-09T03:51:24;94608.44;;;19.48;77.88
35892;BME280;21993;42.672;23.296;2022-07-09T03:53:50;94610.88;;;19.43;78.55
35892;BME280;21993;42.672;23.296;2022-07-09T03:56:16;94624.34;;;19.41;77.67
35892;BME280;21993;42.672;23.296;2022-07-09T03:58:42;94616.19;;;19.43;77.71
35892;BME280;21993;42.672;23.296;2022-07-09T04:01:08;94616.75;;;19.38;78.05
35892;BME280;21993;42.672;23.296;2022-07-09T04:03:34;94622.56;;;19.49;79.08
35892;BME280;21993;42.672;23.296;2022-07-09T04:05:59;94611.03;;;19.41;78.26
35892;BME280;21993;42.672;23.296;2022-07-09T04:08:25;94615.38;;;19.43;78.24
35892;BME280;21993;42.672;23.296;2022-07-09T04:10:50;94623.78;;;19.46;78.43
35892;BME280;21993;42.672;23.296;2022-07-09T04:13:16;94618.25;;;19.48;78.47
35892;BME280;21993;42.672;23.296;2022-07-09T04:15:41;94621.38;;;19.51;78.94
35892;BME280;21993;42.672;23.296;2022-07-09T04:18:07;94626.50;;;19.53;78.86
35892;BME280;21993;42.672;23.296;2022-07-09T04:20:32;94623.72;;;19.39;78.60
35892;BME280;21993;42.672;23.296;2022-07-09T04:22:58;94624.75;;;19.38;78.20
35892;BME280;21993;42.672;23.296;2022-07-09T04:25:23;94633.16;;;19.42;79.25
35892;BME280;21993;42.672;23.296;2022-07-09T04:27:49;94635.25;;;19.47;79.16
35892;BME280;21993;42.672;23.296;2022-07-09T04:30:14;94642.81;;;19.43;79.22
35892;BME280;21993;42.672;23.296;2022-07-09T04:32:39;94641.41;;;19.47;78.52
35892;BME280;21993;42.672;23.296;2022-07-09T04:35:05;94635.19;;;19.40;78.95
35892;BME280;21993;42.672;23.296;2022-07-09T04:37:30;94633.69;;;19.52;78.60
35892;BME280;21993;42.672;23.296;2022-07-09T04:39:56;94623.41;;;19.49;79.16
35892;BME280;21993;42.672;23.296;2022-07-09T04:42:21;94627.22;;;19.40;79.10
35892;BME280;21993;42.672;23.296;2022-07-09T04:44:47;94619.41;;;19.38;78.54
35892;BME280;21993;42.672;23.296;2022-07-09T04:47:12;94630.75;;;19.47;78.87
35892;BME280;21993;42.672;23.296;2022-07-09T04:49:38;94628.91;;;19.48;79.24
35892;BME280;21993;42.672;23.296;2022-07-09T04:52:04;94616.47;;;19.55;78.52
35892;BME280;21993;42.672;23.296;2022-07-09T04:54:30;94623.22;;;19.51;78.35
35892;BME280;21993;42.672;23.296;2022-07-09T04:56:56;94627.13;;;19.55;78.96
35892;BME280;21993;42.672;23.296;2022-07-09T04:59:21;94630.63;;;19.55;78.81
35892;BME280;21993;42.672;23.296;2022-07-09T05:01:47;94627.03;;;19.63;79.41
35892;BME280;21993;42.672;23.296;2022-07-09T05:04:13;94627.13;;;19.55;79.01
35892;BME280;21993;42.672;23.296;2022-07-09T05:06:38;94631.84;;;19.53;78.90
35892;BME280;21993;42.672;23.296;2022-07-09T05:09:05;94635.53;;;19.52;79.19
35892;BME280;21993;42.672;23.296;2022-07-09T05:11:30;94634.50;;;19.53;78.79
35892;BME280;21993;42.672;23.296;2022-07-09T05:13:56;94632.03;;;19.51;79.50
35892;BME280;21993;42.672;23.296;2022-07-09T05:16:21;94641.94;;;19.57;79.56
35892;BME280;21993;42.672;23.296;2022-07-09T05:18:47;94635.84;;;19.63;79.33
35892;BME280;21993;42.672;23.296;2022-07-09T05:21:13;94637.47;;;19.64;79.06
35892;BME280;21993;42.672;23.296;2022-07-09T05:23:38;94643.41;;;19.60;78.18
35892;BME280;21993;42.672;23.296;2022-07-09T05:26:04;94643.84;;;19.63;78.44
35892;BME280;21993;42.672;23.296;2022-07-09T05:28:29;94649.22;;;19.70;78.71
35892;BME280;21993;42.672;23.296;2022-07-09T05:30:55;94649.41;;;19.68;79.06
35892;BME280;21993;42.672;23.296;2022-07-09T05:33:20;94651.41;;;19.66;78.71
35892;BME280;21993;42.672;23.296;2022-07-09T05:35:46;94656.88;;;19.58;78.48
35892;BME280;21993;42.672;23.296;2022-07-09T05:38:11;94653.59;;;19.56;78.48
35892;BME280;21993;42.672;23.296;2022-07-09T05:40:37;94648.34;;;19.63;78.18
35892;BME280;21993;42.672;23.296;2022-07-09T05:43:02;94653.97;;;19.53;77.80
35892;BME280;21993;42.672;23.296;2022-07-09T05:45:28;94670.19;;;19.58;78.58
35892;BME280;21993;42.672;23.296;2022-07-09T05:47:53;94659.19;;;19.61;78.32
35892;BME280;21993;42.672;23.296;2022-07-09T05:50:19;94663.78;;;19.53;78.54
35892;BME280;21993;42.672;23.296;2022-07-09T05:52:44;94660.63;;;19.64;77.48
35892;BME280;21993;42.672;23.296;2022-07-09T05:55:10;94669.38;;;19.58;77.97
35892;BME280;21993;42.672;23.296;2022-07-09T05:57:36;94664.75;;;19.66;78.85
35892;BME280;21993;42.672;23.296;2022-07-09T06:00:03;94663.75;;;19.67;78.42
35892;BME280;21993;42.672;23.296;2022-07-09T06:02:30;94662.72;;;19.68;77.90
35892;BME280;21993;42.672;23.296;2022-07-09T06:04:55;94657.56;;;19.67;78.38
35892;BME280;21993;42.672;23.296;2022-07-09T06:07:21;94658.22;;;19.69;78.64
35892;BME280;21993;42.672;23.296;2022-07-09T06:09:46;94660.69;;;19.71;78.68
35892;BME280;21993;42.672;23.296;2022-07-09T06:12:12;94667.03;;;19.70;78.01
35892;BME280;21993;42.672;23.296;2022-07-09T06:14:37;94666.00;;;19.71;77.72
35892;BME280;21993;42.672;23.296;2022-07-09T06:17:03;94665.63;;;19.74;78.21
35892;BME280;21993;42.672;23.296;2022-07-09T06:19:36;94672.44;;;19.76;77.58
35892;BME280;21993;42.672;23.296;2022-07-09T06:22:02;94666.84;;;19.71;78.03
35892;BME280;21993;42.672;23.296;2022-07-09T06:24:28;94672.59;;;19.75;78.16
35892;BME280;21993;42.672;23.296;2022-07-09T06:26:55;94663.59;;;19.76;78.77
35892;BME280;21993;42.672;23.296;2022-07-09T06:29:21;94668.47;;;19.72;77.87
35892;BME280;21993;42.672;23.296;2022-07-09T06:31:46;94667.66;;;19.72;77.85
35892;BME280;21993;42.672;23.296;2022-07-09T06:34:12;94680.50;;;19.61;78.08
35892;BME280;21993;42.672;23.296;2022-07-09T06:36:38;94670.47;;;19.63;78.50
35892;BME280;21993;42.672;23.296;2022-07-09T06:39:04;94685.63;;;19.63;78.23
35892;BME280;21993;42.672;23.296;2022-07-09T06:41:47;94685.81;;;19.61;78.59
35892;BME280;21993;42.672;23.296;2022-07-09T06:44:13;94677.09;;;19.74;77.34
35892;BME280;21993;42.672;23.296;2022-07-09T06:46:38;94671.78;;;19.74;78.10
35892;BME280;21993;42.672;23.296;2022-07-09T06:49:04;94679.72;;;19.67;78.47
35892;BME280;21993;42.672;23.296;2022-07-09T06:51:30;94680.41;;;19.55;78.47
35892;BME280;21993;42.672;23.296;2022-07-09T06:53:55;94693.88;;;19.68;79.34
35892;BME280;21993;42.672;23.296;2022-07-09T06:56:22;94685.09;;;19.74;78.96
35892;BME280;21993;42.672;23.296;2022-07-09T06:58:47;94689.22;;;19.77;78.42
35892;BME280;21993;42.672;23.296;2022-07-09T07:01:13;94682.06;;;19.77;79.35
35892;BME280;21993;42.672;23.296;2022-07-09T07:03:38;94680.28;;;19.84;78.14
35892;BME280;21993;42.672;23.296;2022-07-09T07:06:04;94680.78;;;19.73;78.09
35892;BME280;21993;42.672;23.296;2022-07-09T07:08:29;94680.41;;;19.76;79.18
35892;BME280;21993;42.672;23.296;2022-07-09T07:10:55;94673.25;;;19.77;78.91
35892;BME280;21993;42.672;23.296;2022-07-09T07:13:20;94685.75;;;19.76;78.61
35892;BME280;21993;42.672;23.296;2022-07-09T07:15:46;94675.09;;;19.76;78.84
35892;BME280;21993;42.672;23.296;2022-07-09T07:18:15;94686.94;;;19.74;78.87
35892;BME280;21993;42.672;23.296;2022-07-09T07:20:42;94679.13;;;19.72;78.26
35892;BME280;21993;42.672;23.296;2022-07-09T07:23:07;94678.38;;;19.78;79.59
35892;BME280;21993;42.672;23.296;2022-07-09T07:25:32;94682.69;;;19.79;78.81
35892;BME280;21993;42.672;23.296;2022-07-09T07:27:59;94684.28;;;19.74;79.06
35892;BME280;21993;42.672;23.296;2022-07-09T07:30:26;94680.91;;;19.86;79.44
35892;BME280;21993;42.672;23.296;2022-07-09T07:32:52;94676.75;;;19.84;79.83
35892;BME280;21993;42.672;23.296;2022-07-09T07:35:17;94681.91;;;19.85;79.62
35892;BME280;21993;42.672;23.296;2022-07-09T07:37:43;94677.69;;;19.98;80.03
35892;BME280;21993;42.672;23.296;2022-07-09T07:40:09;94684.81;;;19.90;79.83
35892;BME280;21993;42.672;23.296;2022-07-09T07:42:34;94692.03;;;19.96;80.03
35892;BME280;21993;42.672;23.296;2022-07-09T07:45:00;94685.94;;;20.03;78.57
35892;BME280;21993;42.672;23.296;2022-07-09T07:47:25;94677.97;;;20.09;79.39
35892;BME280;21993;42.672;23.296;2022-07-09T07:49:51;94681.25;;;20.05;78.96
35892;BME280;21993;42.672;23.296;2022-07-09T07:52:17;94677.59;;;20.12;79.45
35892;BME280;21993;42.672;23.296;2022-07-09T07:54:42;94677.97;;;20.09;78.71
35892;BME280;21993;42.672;23.296;2022-07-09T07:57:07;94681.13;;;20.19;78.93
35892;BME280;21993;42.672;23.296;2022-07-09T07:59:33;94686.06;;;20.22;78.30
35892;BME280;21993;42.672;23.296;2022-07-09T08:01:58;94683.44;;;20.29;77.46
35892;BME280;21993;42.672;23.296;2022-07-09T08:04:24;94675.00;;;20.25;77.88
35892;BME280;21993;42.672;23.296;2022-07-09T08:06:49;94680.34;;;20.25;77.85
35892;BME280;21993;42.672;23.296;2022-07-09T08:09:15;94678.94;;;20.30;78.32
35892;BME280;21993;42.672;23.296;2022-07-09T08:11:40;94673.75;;;20.21;78.36
35892;BME280;21993;42.672;23.296;2022-07-09T08:14:06;94680.31;;;20.19;78.42
35892;BME280;21993;42.672;23.296;2022-07-09T08:16:32;94680.13;;;20.20;77.83
35892;BME280;21993;42.672;23.296;2022-07-09T08:18:57;94679.09;;;20.21;77.30
35892;BME280;21993;42.672;23.296;2022-07-09T08:21:23;94684.44;;;20.21;76.97
35892;BME280;21993;42.672;23.296;2022-07-09T08:23:48;94677.19;;;20.15;77.46
35892;BME280;21993;42.672;23.296;2022-07-09T08:26:18;94681.41;;;20.31;77.12
35892;BME280;21993;42.672;23.296;2022-07-09T08:28:44;94677.28;;;20.29;76.75
35892;BME280;21993;42.672;23.296;2022-07-09T08:31:09;94667.41;;;20.22;77.55
35892;BME280;21993;42.672;23.296;2022-07-09T08:33:35;94682.00;;;20.27;77.52
35892;BME280;21993;42.672;23.296;2022-07-09T08:36:00;94679.72;;;20.23;77.98
35892;BME280;21993;42.672;23.296;2022-07-09T08:38:26;94682.81;;;20.27;77.07
35892;BME280;21993;42.672;23.296;2022-07-09T08:40:53;94685.56;;;20.40;76.37
35892;BME280;21993;42.672;23.296;2022-07-09T08:43:18;94684.31;;;20.36;76.73
35892;BME280;21993;42.672;23.296;2022-07-09T08:45:45;94688.00;;;20.35;77.27
35892;BME280;21993;42.672;23.296;2022-07-09T08:48:12;94685.13;;;20.37;76.53
35892;BME280;21993;42.672;23.296;2022-07-09T08:50:40;94684.66;;;20.55;75.42
35892;BME280;21993;42.672;23.296;2022-07-09T08:53:05;94687.94;;;20.57;74.50
35892;BME280;21993;42.672;23.296;2022-07-09T08:55:31;94684.25;;;20.58;74.82
35892;BME280;21993;42.672;23.296;2022-07-09T08:57:58;94689.19;;;20.61;74.67
35892;BME280;21993;42.672;23.296;2022-07-09T09:00:23;94692.09;;;20.66;75.17
35892;BME280;21993;42.672;23.296;2022-07-09T09:02:49;94687.56;;;20.66;74.71
35892;BME280;21993;42.672;23.296;2022-07-09T09:05:15;94683.47;;;20.64;74.91
35892;BME280;21993;42.672;23.296;2022-07-09T09:07:41;94696.38;;;20.60;75.53
35892;BME280;21993;42.672;23.296;2022-07-09T09:10:07;94695.31;;;20.55;74.97
35892;BME280;21993;42.672;23.296;2022-07-09T09:12:34;94692.88;;;20.60;75.19
35892;BME280;21993;42.672;23.296;2022-07-09T09:14:59;94695.28;;;20.48;75.17
35892;BME280;21993;42.672;23.296;2022-07-09T09:17:29;94692.25;;;20.58;75.93
35892;BME280;21993;42.672;23.296;2022-07-09T09:19:55;94684.91;;;20.66;78.13
35892;BME280;21993;42.672;23.296;2022-07-09T09:22:21;94694.91;;;20.58;79.34
35892;BME280;21993;42.672;23.296;2022-07-09T09:24:50;94694.88;;;20.51;79.38
35892;BME280;21993;42.672;23.296;2022-07-09T09:27:16;94691.22;;;20.52;80.32
35892;BME280;21993;42.672;23.296;2022-07-09T09:29:51;94685.44;;;20.48;79.90
35892;BME280;21993;42.672;23.296;2022-07-09T09:32:19;94682.19;;;20.53;79.65
35892;BME280;21993;42.672;23.296;2022-07-09T09:34:50;94683.00;;;20.54;79.46
35892;BME280;21993;42.672;23.296;2022-07-09T09:37:25;94684.59;;;20.48;79.91
35892;BME280;21993;42.672;23.296;2022-07-09T09:39:50;94681.97;;;20.55;79.70
35892;BME280;21993;42.672;23.296;2022-07-09T09:42:19;94687.06;;;20.49;79.54
35892;BME280;21993;42.672;23.296;2022-07-09T09:44:48;94677.25;;;20.57;79.59
35892;BME280;21993;42.672;23.296;2022-07-09T09:47:20;94674.59;;;20.57;80.62
35892;BME280;21993;42.672;23.296;2022-07-09T09:49:47;94680.75;;;20.57;81.87
35892;BME280;21993;42.672;23.296;2022-07-09T09:52:13;94680.78;;;20.64;82.54
35892;BME280;21993;42.672;23.296;2022-07-09T09:54:40;94675.66;;;20.62;81.94
35892;BME280;21993;42.672;23.296;2022-07-09T09:57:09;94684.03;;;20.59;80.71
35892;BME280;21993;42.672;23.296;2022-07-09T09:59:41;94688.97;;;20.56;80.21
35892;BME280;21993;42.672;23.296;2022-07-09T10:02:09;94694.13;;;20.64;79.47
35892;BME280;21993;42.672;23.296;2022-07-09T10:04:42;94679.13;;;20.56;78.67
35892;BME280;21993;42.672;23.296;2022-07-09T10:07:10;94687.13;;;20.56;79.01
35892;BME280;21993;42.672;23.296;2022-07-09T10:09:36;94680.97;;;20.56;78.76
35892;BME280;21993;42.672;23.296;2022-07-09T10:12:01;94682.03;;;20.61;78.92
35892;BME280;21993;42.672;23.296;2022-07-09T10:16:52;94688.56;;;20.59;79.28
35892;BME280;21993;42.672;23.296;2022-07-09T10:19:28;94691.84;;;20.54;79.54
35892;BME280;21993;42.672;23.296;2022-07-09T10:21:57;94700.41;;;20.49;79.41
35892;BME280;21993;42.672;23.296;2022-07-09T10:24:27;94696.53;;;20.52;78.52
35892;BME280;21993;42.672;23.296;2022-07-09T10:27:13;94684.19;;;20.51;79.02
35892;BME280;21993;42.672;23.296;2022-07-09T10:29:59;94693.63;;;20.47;79.98
35892;BME280;21993;42.672;23.296;2022-07-09T10:32:26;94699.50;;;20.42;80.16
35892;BME280;21993;42.672;23.296;2022-07-09T10:37:31;94693.97;;;20.37;80.47
35892;BME280;21993;42.672;23.296;2022-07-09T10:40:17;94698.97;;;20.47;81.19
35892;BME280;21993;42.672;23.296;2022-07-09T10:42:44;94701.88;;;20.52;80.81
35892;BME280;21993;42.672;23.296;2022-07-09T10:48:06;94708.66;;;20.55;79.42
35892;BME280;21993;42.672;23.296;2022-07-09T10:50:35;94702.66;;;20.46;79.21
35892;BME280;21993;42.672;23.296;2022-07-09T10:53:02;94701.97;;;20.37;79.34
35892;BME280;21993;42.672;23.296;2022-07-09T10:55:29;94700.00;;;20.46;78.17
35892;BME280;21993;42.672;23.296;2022-07-09T10:57:55;94710.31;;;20.28;79.33
35892;BME280;21993;42.672;23.296;2022-07-09T11:00:23;94700.22;;;20.23;79.05
35892;BME280;21993;42.672;23.296;2022-07-09T11:05:32;94710.22;;;20.14;77.85
35892;BME280;21993;42.672;23.296;2022-07-09T11:08:05;94706.91;;;20.12;77.21
35892;BME280;21993;42.672;23.296;2022-07-09T11:10:37;94705.91;;;20.13;77.18
35892;BME280;21993;42.672;23.296;2022-07-09T11:13:04;94714.09;;;20.12;78.41
35892;BME280;21993;42.672;23.296;2022-07-09T11:15:32;94712.44;;;20.11;76.71
35892;BME280;21993;42.672;23.296;2022-07-09T11:18:09;94718.41;;;20.13;77.08
35892;BME280;21993;42.672;23.296;2022-07-09T11:23:09;94718.28;;;20.00;76.28
35892;BME280;21993;42.672;23.296;2022-07-09T11:25:35;94715.88;;;20.05;75.75
35892;BME280;21993;42.672;23.296;2022-07-09T11:28:01;94722.59;;;20.01;77.62
35892;BME280;21993;42.672;23.296;2022-07-09T11:30:27;94720.19;;;20.06;76.75
35892;BME280;21993;42.672;23.296;2022-07-09T11:32:53;94717.94;;;20.09;76.67
35892;BME280;21993;42.672;23.296;2022-07-09T11:35:32;94722.72;;;19.86;76.59
35892;BME280;21993;42.672;23.296;2022-07-09T11:38:00;94715.59;;;19.93;76.20
35892;BME280;21993;42.672;23.296;2022-07-09T11:40:26;94711.25;;;19.92;77.15
35892;BME280;21993;42.672;23.296;2022-07-09T11:42:53;94719.44;;;19.90;77.29
35892;BME280;21993;42.672;23.296;2022-07-09T11:45:29;94727.22;;;19.85;76.32
35892;BME280;21993;42.672;23.296;2022-07-09T11:48:08;94713.25;;;19.83;76.08
35892;BME280;21993;42.672;23.296;2022-07-09T11:50:42;94705.56;;;19.95;75.15
35892;BME280;21993;42.672;23.296;2022-07-09T11:53:22;94703.91;;;19.94;74.92
35892;BME280;21993;42.672;23.296;2022-07-09T11:56:03;94701.94;;;20.03;75.95
35892;BME280;21993;42.672;23.296;2022-07-09T11:58:32;94709.25;;;19.94;75.46
35892;BME280;21993;42.672;23.296;2022-07-09T12:00:57;94706.31;;;19.89;75.71
35892;BME280;21993;42.672;23.296;2022-07-09T12:03:28;94701.63;;;19.91;75.13
35892;BME280;21993;42.672;23.296;2022-07-09T12:05:55;94705.69;;;19.87;74.78
35892;BME280;21993;42.672;23.296;2022-07-09T12:08:30;94701.59;;;19.84;76.02
35892;BME280;21993;42.672;23.296;2022-07-09T12:10:57;94701.41;;;19.86;75.82
35892;BME280;21993;42.672;23.296;2022-07-09T12:13:23;94703.66;;;19.89;75.45
35892;BME280;21993;42.672;23.296;2022-07-09T12:15:48;94705.69;;;19.87;75.50
35892;BME280;21993;42.672;23.296;2022-07-09T12:18:14;94695.88;;;19.87;75.95
35892;BME280;21993;42.672;23.296;2022-07-09T12:20:39;94697.09;;;19.85;75.24
35892;BME280;21993;42.672;23.296;2022-07-09T12:23:05;94687.69;;;19.89;74.65
35892;BME280;21993;42.672;23.296;2022-07-09T12:25:30;94678.47;;;19.91;75.03
35892;BME280;21993;42.672;23.296;2022-07-09T12:27:56;94688.06;;;19.86;75.19
35892;BME280;21993;42.672;23.296;2022-07-09T12:30:22;94680.56;;;19.96;73.99
35892;BME280;21993;42.672;23.296;2022-07-09T12:32:48;94689.03;;;20.06;74.41
35892;BME280;21993;42.672;23.296;2022-07-09T12:35:13;94694.41;;;20.13;73.62
35892;BME280;21993;42.672;23.296;2022-07-09T12:37:40;94681.56;;;20.23;73.96
35892;BME280;21993;42.672;23.296;2022-07-09T12:40:07;94685.09;;;20.30;73.00
35892;BME280;21993;42.672;23.296;2022-07-09T12:42:33;94700.22;;;20.23;73.61
35892;BME280;21993;42.672;23.296;2022-07-09T12:44:59;94696.81;;;20.36;72.46
35892;BME280;21993;42.672;23.296;2022-07-09T12:47:25;94687.50;;;20.25;73.04
35892;BME280;21993;42.672;23.296;2022-07-09T12:49:51;94688.97;;;20.28;72.13
35892;BME280;21993;42.672;23.296;2022-07-09T12:52:16;94689.84;;;20.35;71.96
35892;BME280;21993;42.672;23.296;2022-07-09T12:54:42;94683.66;;;20.28;72.04
35892;BME280;21993;42.672;23.296;2022-07-09T12:57:08;94680.09;;;20.48;71.34
35892;BME280;21993;42.672;23.296;2022-07-09T12:59:33;94673.03;;;20.41;72.54